Time;durP1;ratioP1;P1;durP2;ratioP2;P2;SDS_P1;SDS_P2;PMS_P1;PMS_P2;Temp;Humidity;BMP_temperature;BMP_pressure;BME280_temperature;BME280_humidity;BME280_pressure;Samples;Min_cycle;Max_cycle;Signal;HPM_P1;HPM_P2
2023/04/20 00:00:10;;;;;;;1.58;0.50;;;8.40;48.20;;;;;;4940772;28;20133;-80
2023/04/20 00:02:40;;;;;;;0.80;0.47;;;8.30;48.40;;;;;;4976284;28;20574;-80
2023/04/20 00:05:09;;;;;;;1.38;0.50;;;8.30;48.80;;;;;;4959483;28;20470;-80
2023/04/20 00:07:37;;;;;;;2.67;0.70;;;8.30;49.00;;;;;;4944280;28;20047;-80
2023/04/20 00:10:06;;;;;;;1.40;0.50;;;8.30;49.00;;;;;;4943682;28;20047;-80
2023/04/20 00:12:33;;;;;;;2.08;0.80;;;8.20;49.20;;;;;;4959538;28;20463;-80
2023/04/20 00:15:00;;;;;;;2.65;0.60;;;8.20;49.30;;;;;;4959564;28;20050;-79
2023/04/20 00:17:30;;;;;;;2.03;0.60;;;8.20;49.20;;;;;;4975441;28;20487;-80
2023/04/20 00:19:57;;;;;;;1.73;0.40;;;8.20;49.40;;;;;;4986163;28;20451;-80
2023/04/20 00:22:25;;;;;;;1.13;0.50;;;8.20;49.50;;;;;;4964403;28;20114;-80
2023/04/20 00:24:52;;;;;;;0.80;0.30;;;8.20;49.60;;;;;;4977838;28;20440;-80
2023/04/20 00:27:19;;;;;;;1.42;0.38;;;8.10;49.50;;;;;;4961817;28;20038;-80
2023/04/20 00:29:46;;;;;;;0.65;0.30;;;8.10;49.60;;;;;;4958956;28;20039;-80
2023/04/20 00:32:13;;;;;;;2.47;0.50;;;8.10;49.70;;;;;;4972129;28;20503;-80
2023/04/20 00:34:40;;;;;;;1.65;0.70;;;8.10;49.80;;;;;;4943527;28;20062;-80
2023/04/20 00:37:07;;;;;;;0.98;0.40;;;8.10;49.80;;;;;;4943165;28;20062;-80
2023/04/20 00:39:34;;;;;;;1.52;0.50;;;8.10;50.00;;;;;;4942396;28;20479;-80
2023/04/20 00:42:06;;;;;;;1.00;0.47;;;8.00;50.20;;;;;;4946357;28;20043;-80
2023/04/20 00:44:34;;;;;;;1.30;0.50;;;8.00;50.10;;;;;;4969024;28;20043;-79
2023/04/20 00:47:01;;;;;;;1.50;0.50;;;8.00;50.50;;;;;;4959008;28;20043;-80
2023/04/20 00:49:29;;;;;;;1.23;0.47;;;8.00;50.50;;;;;;4958879;28;20109;-80
2023/04/20 00:51:59;;;;;;;2.05;1.00;;;7.90;50.60;;;;;;4958921;28;20055;-80
2023/04/20 00:54:30;;;;;;;1.33;0.50;;;7.90;50.50;;;;;;4959649;28;20122;-80
2023/04/20 00:57:01;;;;;;;1.30;0.35;;;7.90;50.50;;;;;;4943016;28;20051;-81
2023/04/20 00:59:28;;;;;;;1.00;0.50;;;7.90;50.60;;;;;;4940554;28;20133;-82
2023/04/20 01:01:56;;;;;;;2.38;0.68;;;7.90;50.70;;;;;;4961651;28;20098;-82
2023/04/20 01:04:25;;;;;;;1.58;0.75;;;7.90;50.90;;;;;;4958827;28;20047;-82
2023/04/20 01:06:52;;;;;;;0.95;0.47;;;7.80;50.90;;;;;;4970716;28;20058;-82
2023/04/20 01:09:20;;;;;;;0.88;0.52;;;7.80;51.30;;;;;;4960224;28;20114;-82
2023/04/20 01:11:47;;;;;;;0.82;0.43;;;7.80;51.30;;;;;;4942907;28;20121;-82
2023/04/20 01:14:15;;;;;;;1.95;0.68;;;7.80;51.50;;;;;;4974429;28;20053;-82
2023/04/20 01:16:46;;;;;;;1.65;0.57;;;7.80;51.40;;;;;;4974219;28;20101;-82
2023/04/20 01:19:13;;;;;;;1.52;0.55;;;7.90;51.50;;;;;;4942990;28;20042;-81
2023/04/20 01:21:40;;;;;;;0.90;0.40;;;7.90;51.60;;;;;;4928254;28;20082;-82
2023/04/20 01:24:07;;;;;;;1.58;0.50;;;8.00;51.50;;;;;;4942660;28;20542;-82
2023/04/20 01:26:34;;;;;;;1.90;0.63;;;8.10;51.30;;;;;;4958064;28;20042;-82
2023/04/20 01:29:01;;;;;;;1.30;0.70;;;8.20;51.40;;;;;;4942067;28;20043;-82
2023/04/20 01:31:28;;;;;;;1.95;0.80;;;8.30;51.70;;;;;;4974100;28;20051;-82
2023/04/20 01:34:00;;;;;;;1.60;0.60;;;8.40;51.60;;;;;;4977835;28;20051;-82
2023/04/20 01:36:27;;;;;;;2.15;0.63;;;8.40;51.50;;;;;;4965347;28;20055;-82
2023/04/20 01:38:54;;;;;;;1.70;0.60;;;8.50;51.90;;;;;;4958113;28;20444;-82
2023/04/20 01:41:21;;;;;;;1.67;0.70;;;8.60;52.00;;;;;;4974054;28;20141;-82
2023/04/20 01:43:48;;;;;;;1.08;0.60;;;8.60;52.10;;;;;;4958026;28;20446;-82
2023/04/20 01:46:15;;;;;;;1.92;0.63;;;8.60;52.20;;;;;;4942173;28;20078;-83
2023/04/20 01:48:42;;;;;;;1.63;0.70;;;8.50;52.40;;;;;;4973752;28;20059;-82
2023/04/20 01:51:09;;;;;;;1.42;0.68;;;8.40;52.80;;;;;;4942246;28;20043;-81
2023/04/20 01:53:38;;;;;;;4.15;0.73;;;8.40;53.20;;;;;;4937510;28;20089;-82
2023/04/20 01:56:06;;;;;;;1.88;0.63;;;8.30;53.20;;;;;;4958154;28;20466;-82
2023/04/20 01:58:33;;;;;;;1.90;0.70;;;8.30;53.40;;;;;;4932892;28;20109;-81
2023/04/20 02:01:01;;;;;;;1.83;0.60;;;8.20;53.60;;;;;;4957709;28;20051;-82
2023/04/20 02:03:28;;;;;;;2.67;0.70;;;8.20;53.90;;;;;;4957553;28;20414;-82
2023/04/20 02:05:55;;;;;;;2.55;0.85;;;8.10;54.20;;;;;;4957715;28;20047;-82
2023/04/20 02:08:27;;;;;;;1.85;0.70;;;8.10;54.50;;;;;;4958297;28;20102;-82
2023/04/20 02:10:54;;;;;;;1.83;0.90;;;8.10;55.40;;;;;;4973534;28;20043;-82
2023/04/20 02:13:21;;;;;;;1.88;0.90;;;8.00;54.90;;;;;;4957231;28;20137;-83
2023/04/20 02:15:48;;;;;;;3.15;0.93;;;8.00;55.00;;;;;;4973485;28;20046;-82
2023/04/20 02:18:15;;;;;;;1.77;0.80;;;8.00;55.10;;;;;;4957981;28;20047;-81
2023/04/20 02:20:45;;;;;;;1.10;0.50;;;7.90;55.20;;;;;;4941570;28;20053;-82
2023/04/20 02:23:12;;;;;;;2.13;0.80;;;7.90;55.20;;;;;;4957112;28;20047;-82
2023/04/20 02:25:39;;;;;;;3.13;1.00;;;7.90;56.00;;;;;;4957379;28;20102;-82
2023/04/20 02:28:09;;;;;;;1.88;0.63;;;7.90;55.80;;;;;;4957710;28;20443;-82
2023/04/20 02:30:37;;;;;;;2.25;0.65;;;7.90;55.90;;;;;;4926374;28;20051;-82
2023/04/20 02:33:04;;;;;;;1.25;0.50;;;8.00;56.10;;;;;;4943045;28;20046;-82
2023/04/20 02:35:31;;;;;;;2.78;0.93;;;8.10;55.80;;;;;;4957114;28;20050;-82
2023/04/20 02:37:58;;;;;;;1.55;0.70;;;8.10;55.90;;;;;;4957594;28;20085;-82
2023/04/20 02:40:25;;;;;;;3.42;0.82;;;8.20;56.00;;;;;;4957599;28;20062;-82
2023/04/20 02:42:52;;;;;;;2.05;0.82;;;8.20;55.90;;;;;;4972964;28;20050;-81
2023/04/20 02:45:20;;;;;;;2.75;1.05;;;8.30;56.30;;;;;;4957034;28;20038;-82
2023/04/20 02:47:48;;;;;;;1.10;0.50;;;8.30;56.20;;;;;;4957035;28;20054;-82
2023/04/20 02:50:16;;;;;;;2.03;0.60;;;8.30;56.00;;;;;;4972882;28;20042;-82
2023/04/20 02:53:12;;;;;;;1.90;0.60;;;8.30;56.00;;;;;;4960887;28;20402;-82
2023/04/20 02:55:41;;;;;;;1.45;0.70;;;8.40;56.20;;;;;;4940943;28;20488;-81
2023/04/20 02:58:21;;;;;;;2.33;1.05;;;8.40;56.30;;;;;;4944576;28;20114;-82
2023/04/20 03:01:26;;;;;;;1.33;0.70;;;8.40;56.40;;;;;;4925298;29;20451;-82
2023/04/20 03:04:03;;;;;;;2.50;0.70;;;8.50;56.60;;;;;;4887896;29;20099;-82
2023/04/20 03:06:35;;;;;;;2.25;0.73;;;8.40;56.70;;;;;;4937695;28;20049;-81
2023/04/20 03:09:06;;;;;;;1.58;0.57;;;8.50;56.70;;;;;;4961864;28;20050;-82
2023/04/20 03:11:53;;;;;;;1.52;0.60;;;8.50;57.30;;;;;;4950528;28;20098;-82
2023/04/20 03:14:40;;;;;;;2.00;0.60;;;8.50;56.80;;;;;;4976692;28;20050;-82
2023/04/20 03:17:07;;;;;;;2.08;0.80;;;8.50;57.00;;;;;;4949663;28;20073;-82
2023/04/20 03:19:35;;;;;;;1.40;0.50;;;8.60;57.00;;;;;;4971559;28;20046;-81
2023/04/20 03:22:03;;;;;;;2.45;0.70;;;8.60;57.00;;;;;;4945704;28;20077;-82
2023/04/20 03:24:32;;;;;;;3.00;0.95;;;8.60;57.00;;;;;;4960857;28;20567;-81
2023/04/20 03:27:03;;;;;;;1.88;0.85;;;8.60;57.60;;;;;;4961256;28;20039;-81
2023/04/20 03:29:42;;;;;;;1.63;0.70;;;8.60;57.90;;;;;;4927781;28;20039;-80
2023/04/20 03:32:09;;;;;;;2.03;0.80;;;8.50;57.60;;;;;;4961025;28;20051;-80
2023/04/20 03:34:36;;;;;;;1.83;0.90;;;8.50;57.60;;;;;;4960137;28;20047;-80
2023/04/20 03:37:04;;;;;;;2.63;0.70;;;8.50;57.50;;;;;;4960386;28;20146;-80
2023/04/20 03:39:31;;;;;;;2.47;0.80;;;8.50;57.60;;;;;;4942408;28;20507;-80
2023/04/20 03:41:58;;;;;;;2.47;0.88;;;8.50;57.80;;;;;;4952395;28;20126;-80
2023/04/20 03:44:25;;;;;;;2.58;0.90;;;8.50;57.90;;;;;;4958976;28;20392;-80
2023/04/20 03:46:54;;;;;;;2.28;0.82;;;8.50;58.00;;;;;;4941876;28;20047;-80
2023/04/20 03:49:24;;;;;;;2.47;0.70;;;8.50;58.00;;;;;;4944042;28;20053;-81
2023/04/20 03:51:53;;;;;;;2.20;0.77;;;8.50;58.10;;;;;;4963905;28;20483;-82
2023/04/20 03:54:21;;;;;;;4.25;0.95;;;8.50;58.10;;;;;;4956657;28;20139;-82
2023/04/20 03:56:49;;;;;;;2.75;1.00;;;8.50;58.20;;;;;;4935791;28;20137;-82
2023/04/20 03:59:17;;;;;;;3.10;1.13;;;8.50;58.30;;;;;;4971164;28;20055;-82
2023/04/20 04:01:47;;;;;;;1.67;0.65;;;8.50;58.50;;;;;;4975315;28;20078;-82
2023/04/20 04:04:15;;;;;;;1.95;0.70;;;8.50;58.40;;;;;;4958634;28;20053;-82
2023/04/20 04:06:42;;;;;;;1.50;0.75;;;8.50;58.40;;;;;;4943666;28;21526;-81
2023/04/20 04:09:10;;;;;;;1.85;0.60;;;8.50;58.40;;;;;;4956634;28;20077;-82
2023/04/20 04:11:37;;;;;;;2.35;0.80;;;8.50;58.70;;;;;;4973303;28;20073;-81
2023/04/20 04:14:04;;;;;;;1.67;0.75;;;8.50;58.70;;;;;;4964591;28;20047;-80
2023/04/20 04:16:32;;;;;;;1.45;0.60;;;8.50;58.80;;;;;;4959235;28;20129;-80
2023/04/20 04:18:59;;;;;;;1.33;0.50;;;8.50;59.50;;;;;;4959522;28;20499;-80
2023/04/20 04:21:27;;;;;;;1.75;0.60;;;8.50;59.00;;;;;;4959472;28;20054;-80
2023/04/20 04:24:01;;;;;;;2.35;0.70;;;8.50;58.90;;;;;;4960350;28;20051;-82
2023/04/20 04:26:57;;;;;;;1.10;0.55;;;8.50;58.90;;;;;;4948532;29;20051;-82
2023/04/20 04:29:27;;;;;;;1.90;0.77;;;8.50;59.10;;;;;;4965242;28;20419;-82
2023/04/20 04:32:03;;;;;;;1.92;0.70;;;8.50;59.20;;;;;;4960972;28;20047;-82
2023/04/20 04:34:32;;;;;;;3.10;0.70;;;8.50;59.30;;;;;;4943643;28;20043;-82
2023/04/20 04:37:00;;;;;;;3.72;0.60;;;8.50;59.40;;;;;;4959362;28;20043;-82
2023/04/20 04:39:38;;;;;;;2.25;1.00;;;8.50;59.30;;;;;;4962381;28;20078;-82
2023/04/20 04:42:13;;;;;;;1.75;0.60;;;8.50;59.60;;;;;;4960116;28;20049;-82
2023/04/20 04:44:43;;;;;;;2.90;0.77;;;8.60;59.60;;;;;;4950896;28;20042;-82
2023/04/20 04:47:16;;;;;;;2.78;0.95;;;8.60;59.60;;;;;;4959966;28;20067;-82
2023/04/20 04:49:44;;;;;;;1.60;0.80;;;8.60;59.60;;;;;;4927953;28;20065;-82
2023/04/20 04:52:12;;;;;;;2.33;1.05;;;8.60;59.70;;;;;;4959169;28;20105;-82
2023/04/20 04:54:39;;;;;;;2.03;0.70;;;8.50;59.70;;;;;;4948210;28;20150;-82
2023/04/20 04:57:06;;;;;;;2.85;0.80;;;8.50;59.70;;;;;;4974452;28;20571;-81
2023/04/20 04:59:33;;;;;;;1.83;0.70;;;8.60;59.80;;;;;;4943026;28;20073;-81
2023/04/20 05:02:00;;;;;;;3.40;1.00;;;8.60;60.00;;;;;;4942831;28;20047;-81
2023/04/20 05:04:27;;;;;;;1.92;0.77;;;8.60;60.00;;;;;;4932056;28;20050;-82
2023/04/20 05:06:57;;;;;;;2.10;0.70;;;8.60;60.10;;;;;;4964613;28;20050;-82
2023/04/20 05:09:25;;;;;;;3.97;0.75;;;8.60;60.00;;;;;;4955201;28;20051;-82
2023/04/20 05:11:52;;;;;;;1.33;0.70;;;8.70;60.10;;;;;;4974400;28;20074;-82
2023/04/20 05:14:21;;;;;;;2.33;0.65;;;8.70;59.90;;;;;;4943488;28;20141;-82
2023/04/20 05:16:51;;;;;;;1.40;0.52;;;8.70;59.90;;;;;;4943521;28;20043;-82
2023/04/20 05:19:18;;;;;;;2.53;0.68;;;8.80;60.00;;;;;;4958223;28;20452;-82
2023/04/20 05:21:45;;;;;;;2.22;0.80;;;8.80;60.00;;;;;;4958535;28;20110;-82
2023/04/20 05:24:12;;;;;;;2.63;0.98;;;8.80;60.00;;;;;;4926745;28;20058;-82
2023/04/20 05:26:43;;;;;;;2.83;0.77;;;8.80;60.00;;;;;;4958540;28;20081;-82
2023/04/20 05:29:09;;;;;;;1.85;0.60;;;8.80;60.00;;;;;;4944239;28;20457;-81
2023/04/20 05:31:37;;;;;;;1.08;0.45;;;8.90;60.10;;;;;;4966531;28;20074;-82
2023/04/20 05:34:04;;;;;;;1.48;0.63;;;8.90;60.00;;;;;;4954959;28;20499;-82
2023/04/20 05:36:34;;;;;;;1.10;0.90;;;8.90;60.10;;;;;;4938691;29;20040;-81
2023/04/20 05:39:02;;;;;;;1.73;0.65;;;8.90;60.00;;;;;;4955200;28;20455;-81
2023/04/20 05:41:30;;;;;;;2.15;0.80;;;8.90;60.10;;;;;;4982445;28;20094;-82
2023/04/20 05:43:57;;;;;;;2.53;0.90;;;9.00;60.30;;;;;;4973995;28;20145;-82
2023/04/20 05:46:28;;;;;;;2.78;0.88;;;8.90;60.20;;;;;;4958749;28;20487;-82
2023/04/20 05:48:55;;;;;;;1.52;0.50;;;8.90;60.20;;;;;;4942203;28;20053;-81
2023/04/20 05:51:24;;;;;;;2.15;0.60;;;9.00;60.30;;;;;;4973694;28;20050;-82
2023/04/20 05:53:51;;;;;;;1.25;0.60;;;9.00;60.30;;;;;;4973388;28;20545;-81
2023/04/20 05:56:18;;;;;;;2.70;0.40;;;9.10;60.20;;;;;;4973606;28;20483;-82
2023/04/20 05:58:46;;;;;;;1.30;0.45;;;9.10;60.00;;;;;;4957655;28;20039;-82
2023/04/20 06:01:13;;;;;;;2.58;0.70;;;9.20;60.00;;;;;;4957740;28;20050;-82
2023/04/20 06:03:42;;;;;;;3.38;0.85;;;9.20;60.00;;;;;;4957610;28;20046;-82
2023/04/20 06:06:10;;;;;;;3.25;0.98;;;9.20;60.00;;;;;;4957606;28;20105;-82
2023/04/20 06:08:37;;;;;;;2.35;1.00;;;9.30;60.20;;;;;;4952346;28;20395;-82
2023/04/20 06:11:04;;;;;;;1.73;0.63;;;9.30;60.20;;;;;;4943443;28;20109;-82
2023/04/20 06:13:31;;;;;;;2.42;0.80;;;9.30;60.30;;;;;;4951543;28;20041;-81
2023/04/20 06:15:58;;;;;;;1.92;0.70;;;9.30;60.10;;;;;;4957545;28;20074;-82
2023/04/20 06:18:25;;;;;;;1.95;1.05;;;9.40;60.20;;;;;;4957633;28;20049;-84
2023/04/20 06:20:52;;;;;;;2.65;1.25;;;9.40;60.20;;;;;;4938452;28;20058;-82
2023/04/20 06:23:20;;;;;;;3.03;0.60;;;9.40;60.20;;;;;;4957455;28;20353;-83
2023/04/20 06:25:47;;;;;;;1.70;0.80;;;9.30;60.30;;;;;;4941739;28;20047;-82
2023/04/20 06:28:14;;;;;;;2.13;0.90;;;9.30;60.40;;;;;;4957510;28;20101;-82
2023/04/20 06:30:41;;;;;;;3.63;1.27;;;9.30;60.60;;;;;;4973057;28;20095;-81
2023/04/20 06:33:08;;;;;;;4.18;1.00;;;9.30;60.50;;;;;;4942220;28;20114;-84
2023/04/20 06:35:38;;;;;;;6.95;1.40;;;9.40;60.40;;;;;;4958424;28;20059;-84
2023/04/20 06:38:05;;;;;;;2.13;1.02;;;9.40;60.30;;;;;;4941088;28;20066;-84
2023/04/20 06:40:32;;;;;;;1.83;0.93;;;9.50;60.20;;;;;;4946253;28;20077;-84
2023/04/20 06:42:59;;;;;;;2.47;1.17;;;9.60;60.30;;;;;;4941270;29;20063;-84
2023/04/20 06:45:27;;;;;;;2.08;1.08;;;9.60;60.20;;;;;;4974080;28;20130;-83
2023/04/20 06:47:55;;;;;;;3.20;1.15;;;9.70;60.20;;;;;;4941903;28;20042;-83
2023/04/20 06:50:22;;;;;;;4.28;1.90;;;9.70;60.30;;;;;;4943188;28;20134;-82
2023/04/20 06:52:49;;;;;;;3.13;1.27;;;9.70;60.30;;;;;;4957035;28;20039;-83
2023/04/20 06:55:16;;;;;;;2.72;1.40;;;9.80;60.30;;;;;;4946320;28;20055;-82
2023/04/20 06:57:43;;;;;;;4.20;1.23;;;9.80;60.30;;;;;;4973360;28;20103;-82
2023/04/20 07:00:11;;;;;;;2.92;1.40;;;9.80;60.20;;;;;;4941191;28;20484;-82
2023/04/20 07:02:46;;;;;;;2.58;1.30;;;9.90;60.10;;;;;;4956764;28;20047;-82
2023/04/20 07:05:14;;;;;;;3.53;1.75;;;10.00;60.10;;;;;;4957048;28;20054;-83
2023/04/20 07:07:41;;;;;;;3.25;1.73;;;9.90;60.90;;;;;;4957542;28;20047;-83
2023/04/20 07:10:11;;;;;;;4.50;1.73;;;9.80;60.30;;;;;;4957326;28;20050;-82
2023/04/20 07:12:39;;;;;;;3.10;1.50;;;9.80;60.60;;;;;;4941179;28;20146;-82
2023/04/20 07:15:09;;;;;;;3.75;1.52;;;9.80;60.70;;;;;;4957371;28;20058;-83
2023/04/20 07:17:36;;;;;;;4.03;1.58;;;9.80;60.80;;;;;;4941601;28;20105;-83
2023/04/20 07:20:06;;;;;;;4.38;1.90;;;9.90;60.80;;;;;;4972959;28;20049;-82
2023/04/20 07:22:36;;;;;;;3.30;1.70;;;9.90;60.80;;;;;;4957073;28;20042;-82
2023/04/20 07:25:05;;;;;;;3.70;1.73;;;10.00;60.90;;;;;;4975818;28;20041;-83
2023/04/20 07:27:37;;;;;;;2.97;1.20;;;9.90;60.90;;;;;;4951223;28;20051;-82
2023/04/20 07:30:09;;;;;;;3.75;2.00;;;10.00;60.80;;;;;;4972898;28;20043;-83
2023/04/20 07:32:38;;;;;;;4.35;2.08;;;10.00;61.10;;;;;;4972667;28;20495;-82
2023/04/20 07:35:06;;;;;;;4.75;1.65;;;9.80;61.20;;;;;;4957039;28;20449;-83
2023/04/20 07:37:33;;;;;;;4.90;1.38;;;9.90;61.40;;;;;;4957397;28;20503;-83
2023/04/20 07:40:01;;;;;;;4.57;1.98;;;9.90;61.50;;;;;;4956966;28;20051;-82
2023/04/20 07:42:28;;;;;;;4.35;2.20;;;9.90;61.70;;;;;;4957223;28;20138;-83
2023/04/20 07:44:55;;;;;;;4.72;2.35;;;9.80;61.70;;;;;;4950583;28;20066;-82
2023/04/20 07:47:24;;;;;;;3.05;1.60;;;9.90;61.80;;;;;;4957494;28;20055;-81
2023/04/20 07:49:51;;;;;;;3.38;1.90;;;9.90;61.60;;;;;;4924346;29;20103;-82
2023/04/20 07:52:18;;;;;;;5.55;1.73;;;10.00;61.60;;;;;;4957681;28;20546;-81
2023/04/20 07:54:46;;;;;;;3.00;1.33;;;10.00;61.50;;;;;;4944177;28;20062;-81
2023/04/20 07:57:14;;;;;;;2.75;1.67;;;10.10;61.40;;;;;;4976033;28;20101;-82
2023/04/20 07:59:41;;;;;;;4.00;1.80;;;10.10;61.30;;;;;;4959967;28;20074;-81
2023/04/20 08:02:08;;;;;;;3.63;1.90;;;10.20;61.20;;;;;;4959864;28;20146;-81
2023/04/20 08:04:38;;;;;;;4.35;2.28;;;10.30;61.10;;;;;;4943806;28;20499;-82
2023/04/20 08:07:05;;;;;;;5.55;2.30;;;10.30;61.20;;;;;;4972451;28;20388;-82
2023/04/20 08:09:32;;;;;;;3.63;1.50;;;10.30;61.30;;;;;;4960131;28;20137;-82
2023/04/20 08:12:00;;;;;;;3.35;1.42;;;10.20;61.20;;;;;;4959684;28;20094;-82
2023/04/20 08:14:30;;;;;;;3.65;1.90;;;10.30;61.30;;;;;;4975619;28;20132;-81
2023/04/20 08:16:57;;;;;;;3.25;1.40;;;10.30;61.30;;;;;;4946579;28;20062;-82
2023/04/20 08:19:25;;;;;;;3.33;1.65;;;10.40;61.30;;;;;;4943862;28;20085;-82
2023/04/20 08:21:53;;;;;;;3.38;1.55;;;10.40;61.10;;;;;;4928353;28;20054;-81
2023/04/20 08:24:20;;;;;;;3.17;1.63;;;10.50;61.10;;;;;;4959699;28;20506;-81
2023/04/20 08:26:47;;;;;;;2.80;1.48;;;10.60;60.80;;;;;;4973088;28;20047;-81
2023/04/20 08:29:14;;;;;;;4.20;1.70;;;10.70;60.80;;;;;;4943656;28;20138;-81
2023/04/20 08:31:41;;;;;;;3.78;1.70;;;10.70;60.80;;;;;;4927598;28;20042;-80
2023/04/20 08:34:08;;;;;;;2.92;1.58;;;10.70;60.80;;;;;;4959401;28;20042;-80
2023/04/20 08:36:35;;;;;;;2.65;1.70;;;10.70;61.00;;;;;;4943508;28;20050;-82
2023/04/20 08:39:08;;;;;;;5.05;2.08;;;10.60;61.20;;;;;;4928104;28;20491;-81
2023/04/20 08:41:35;;;;;;;3.83;1.80;;;10.60;61.40;;;;;;4975049;28;20047;-81
2023/04/20 08:44:03;;;;;;;3.95;1.85;;;10.50;61.40;;;;;;4959097;28;20051;-81
2023/04/20 08:46:33;;;;;;;3.45;1.50;;;10.50;61.50;;;;;;4959389;28;20411;-81
2023/04/20 08:49:02;;;;;;;3.45;1.88;;;10.50;61.60;;;;;;4959485;28;20497;-81
2023/04/20 08:51:32;;;;;;;4.57;1.80;;;10.50;61.60;;;;;;4959031;28;20070;-81
2023/04/20 08:54:05;;;;;;;3.92;1.20;;;10.50;61.70;;;;;;4943791;28;20055;-81
2023/04/20 08:56:40;;;;;;;3.83;1.80;;;10.50;61.80;;;;;;4974702;28;20051;-81
2023/04/20 08:59:09;;;;;;;2.13;1.17;;;10.50;61.90;;;;;;4958546;28;20523;-81
2023/04/20 09:01:38;;;;;;;3.90;1.70;;;10.50;61.80;;;;;;4973650;28;20050;-81
2023/04/20 09:04:19;;;;;;;3.92;1.73;;;10.50;61.80;;;;;;4971042;28;20058;-81
2023/04/20 09:06:49;;;;;;;3.35;1.67;;;10.60;61.70;;;;;;4958738;28;20043;-81
2023/04/20 09:09:17;;;;;;;3.42;1.65;;;10.60;61.80;;;;;;4942569;28;20499;-81
2023/04/20 09:11:45;;;;;;;3.10;1.45;;;10.60;61.80;;;;;;4974561;28;20043;-81
2023/04/20 09:14:14;;;;;;;2.63;1.35;;;10.60;61.90;;;;;;4974695;28;20050;-81
2023/04/20 09:17:00;;;;;;;3.30;1.58;;;10.50;62.10;;;;;;4974377;28;20050;-81
2023/04/20 09:19:30;;;;;;;3.38;1.40;;;10.50;62.30;;;;;;4943631;28;20502;-81
2023/04/20 09:22:02;;;;;;;2.47;1.05;;;10.50;62.40;;;;;;4969772;28;20101;-81
2023/04/20 09:24:32;;;;;;;3.75;1.52;;;10.60;62.20;;;;;;4969774;28;20071;-82
2023/04/20 09:27:02;;;;;;;3.17;1.35;;;10.70;62.10;;;;;;4992915;28;20046;-81
2023/04/20 09:29:29;;;;;;;3.03;1.30;;;10.70;62.10;;;;;;4959220;28;20042;-81
2023/04/20 09:31:56;;;;;;;1.88;0.82;;;10.70;62.10;;;;;;4974961;28;20097;-81
2023/04/20 09:34:23;;;;;;;2.00;0.90;;;10.60;62.10;;;;;;4941893;28;20077;-81
2023/04/20 09:36:53;;;;;;;3.40;1.67;;;10.70;62.10;;;;;;4987563;28;20043;-81
2023/04/20 09:39:22;;;;;;;2.83;1.23;;;10.70;62.20;;;;;;4977316;28;20050;-81
2023/04/20 09:41:50;;;;;;;3.92;1.30;;;10.60;62.30;;;;;;4972792;28;20066;-81
2023/04/20 09:44:18;;;;;;;2.33;1.33;;;10.50;62.40;;;;;;4962707;28;20038;-81
2023/04/20 09:46:46;;;;;;;2.95;1.48;;;10.40;62.50;;;;;;4973253;28;20396;-81
2023/04/20 09:49:17;;;;;;;3.45;2.03;;;10.30;62.80;;;;;;4948605;28;20491;-81
2023/04/20 09:51:44;;;;;;;5.22;1.83;;;10.20;63.00;;;;;;4967548;28;20054;-80
2023/04/20 09:54:12;;;;;;;6.10;1.65;;;10.20;63.10;;;;;;4981492;28;20048;-80
2023/04/20 09:56:40;;;;;;;3.30;1.67;;;10.20;63.20;;;;;;4981847;28;20083;-80
2023/04/20 09:59:07;;;;;;;3.22;1.42;;;10.30;63.00;;;;;;4973807;28;20051;-81
2023/04/20 10:01:36;;;;;;;2.95;1.20;;;10.50;62.70;;;;;;4954499;28;20414;-81
2023/04/20 10:04:09;;;;;;;2.17;1.00;;;10.90;62.20;;;;;;4964726;28;20051;-80
2023/04/20 10:06:37;;;;;;;2.65;1.15;;;11.20;62.20;;;;;;4972515;28;20047;-80
2023/04/20 10:09:07;;;;;;;2.10;0.90;;;11.30;61.20;;;;;;4978944;28;20043;-81
2023/04/20 10:11:40;;;;;;;2.65;1.20;;;11.50;61.00;;;;;;4960584;28;20062;-89
2023/04/20 10:14:24;;;;;;;1.60;1.00;;;11.60;60.80;;;;;;4973966;28;20047;-79
2023/04/20 10:17:02;;;;;;;2.90;1.27;;;11.70;60.60;;;;;;4974305;28;20125;-78
2023/04/20 10:19:43;;;;;;;2.15;1.00;;;11.90;60.30;;;;;;4962884;28;20555;-78
2023/04/20 10:22:32;;;;;;;1.90;0.93;;;12.00;60.00;;;;;;4946783;28;20073;-79
2023/04/20 10:25:01;;;;;;;2.75;1.20;;;12.00;60.00;;;;;;4974075;28;20046;-81
2023/04/20 10:27:30;;;;;;;3.05;1.42;;;12.10;59.90;;;;;;4958070;28;20102;-80
2023/04/20 10:30:10;;;;;;;4.32;1.00;;;12.30;59.60;;;;;;4956437;28;20059;-79
2023/04/20 10:32:37;;;;;;;2.42;0.90;;;12.70;59.10;;;;;;4973067;28;20113;-79
2023/04/20 10:35:07;;;;;;;2.97;0.90;;;12.70;58.60;;;;;;4972370;28;20057;-80
2023/04/20 10:37:35;;;;;;;2.15;0.90;;;12.80;58.50;;;;;;4957470;28;20050;-77
2023/04/20 10:40:03;;;;;;;2.63;1.55;;;12.80;58.30;;;;;;4972934;28;20098;-80
2023/04/20 10:42:44;;;;;;;3.17;1.13;;;12.50;58.50;;;;;;4957488;28;20460;-81
2023/04/20 10:45:11;;;;;;;2.17;1.02;;;12.30;59.00;;;;;;4956948;28;20046;-78
2023/04/20 10:47:43;;;;;;;3.90;1.20;;;12.30;59.00;;;;;;4972739;28;20109;-78
2023/04/20 10:50:15;;;;;;;2.42;1.15;;;12.20;59.00;;;;;;4942582;28;20101;-79
2023/04/20 10:52:43;;;;;;;3.75;1.30;;;12.00;59.20;;;;;;4941013;28;20043;-79
2023/04/20 10:55:24;;;;;;;2.05;0.70;;;12.00;59.40;;;;;;4957324;28;20054;-82
2023/04/20 10:57:52;;;;;;;2.33;0.85;;;12.20;59.10;;;;;;4944480;28;20116;-79
2023/04/20 11:00:21;;;;;;;4.90;1.40;;;12.40;58.70;;;;;;4941136;28;20053;-81
2023/04/20 11:02:49;;;;;;;2.30;1.02;;;12.50;58.50;;;;;;4972758;28;20047;-79
2023/04/20 11:05:17;;;;;;;2.95;1.30;;;12.50;58.40;;;;;;4957710;28;20051;-86
2023/04/20 11:07:51;;;;;;;2.88;1.40;;;12.50;58.30;;;;;;4975797;28;20122;-82
2023/04/20 11:10:23;;;;;;;2.08;1.23;;;12.50;58.10;;;;;;4987048;28;20071;-84
2023/04/20 11:12:50;;;;;;;3.90;1.92;;;12.40;58.40;;;;;;4956462;28;20495;-87
2023/04/20 11:15:17;;;;;;;2.80;1.48;;;12.20;58.30;;;;;;4956371;28;20087;-82
2023/04/20 11:17:45;;;;;;;3.03;1.55;;;11.90;58.60;;;;;;4972429;28;20058;-79
2023/04/20 11:20:15;;;;;;;3.22;1.70;;;11.70;59.00;;;;;;4956412;28;20082;-80
2023/04/20 11:22:43;;;;;;;2.95;1.02;;;11.60;59.30;;;;;;4941138;28;20086;-79
2023/04/20 11:25:11;;;;;;;2.85;1.00;;;11.60;59.40;;;;;;4944294;28;20075;-78
2023/04/20 11:27:40;;;;;;;3.42;1.40;;;11.70;59.20;;;;;;4976544;28;20351;-79
2023/04/20 11:30:08;;;;;;;3.03;1.45;;;11.70;59.00;;;;;;4976314;28;20042;-79
2023/04/20 11:32:36;;;;;;;3.42;1.30;;;11.80;59.10;;;;;;4976331;28;20046;-76
2023/04/20 11:35:07;;;;;;;2.72;1.20;;;11.80;59.00;;;;;;4960315;28;20054;-76
2023/04/20 11:37:46;;;;;;;3.78;1.10;;;11.80;58.90;;;;;;4983813;28;20054;-78
2023/04/20 11:40:14;;;;;;;2.03;0.90;;;11.90;58.80;;;;;;4963769;28;20057;-78
2023/04/20 11:42:41;;;;;;;2.10;1.20;;;12.00;58.70;;;;;;4967039;28;20109;-79
2023/04/20 11:45:10;;;;;;;2.13;1.10;;;12.10;58.50;;;;;;4960132;28;20554;-79
2023/04/20 11:47:39;;;;;;;5.20;1.58;;;12.20;58.30;;;;;;4944430;28;20078;-82
2023/04/20 11:50:08;;;;;;;3.90;1.85;;;12.20;58.20;;;;;;4960788;28;20043;-86
2023/04/20 11:52:35;;;;;;;2.33;1.52;;;12.10;58.30;;;;;;4950460;28;20043;-87
2023/04/20 11:55:02;;;;;;;3.25;1.23;;;12.10;58.40;;;;;;4940255;29;20047;-87
2023/04/20 11:57:29;;;;;;;2.58;1.05;;;12.20;58.50;;;;;;4945663;28;20046;-87
2023/04/20 11:59:59;;;;;;;2.95;1.38;;;12.20;58.40;;;;;;4984030;28;20051;-85
2023/04/20 12:02:26;;;;;;;4.07;1.10;;;12.30;58.40;;;;;;4962833;28;20110;-82
2023/04/20 12:04:54;;;;;;;3.22;1.52;;;12.20;58.40;;;;;;4961644;28;20051;-88
2023/04/20 12:07:22;;;;;;;3.25;1.73;;;12.10;58.60;;;;;;4941709;28;20047;-85
2023/04/20 12:09:49;;;;;;;2.50;1.17;;;11.80;59.00;;;;;;4944979;28;20114;-85
2023/04/20 12:12:18;;;;;;;2.95;1.40;;;11.70;59.30;;;;;;4964236;28;20046;-85
2023/04/20 12:14:45;;;;;;;3.53;1.50;;;11.70;59.40;;;;;;4976119;28;20050;-83
2023/04/20 12:17:12;;;;;;;2.88;1.75;;;11.80;59.30;;;;;;4976539;28;20051;-85
2023/04/20 12:19:39;;;;;;;4.32;2.55;;;11.80;59.00;;;;;;4944628;28;20082;-80
2023/04/20 12:22:06;;;;;;;3.13;1.60;;;11.80;58.90;;;;;;4937251;29;20404;-81
2023/04/20 12:24:33;;;;;;;4.63;2.70;;;11.80;59.00;;;;;;4968896;28;20138;-81
2023/04/20 12:27:02;;;;;;;5.75;2.67;;;11.70;59.00;;;;;;4975910;28;20074;-85
2023/04/20 12:29:31;;;;;;;4.35;2.17;;;11.50;59.20;;;;;;4941009;28;20051;-84
2023/04/20 12:31:58;;;;;;;3.58;1.88;;;11.50;59.40;;;;;;4965802;28;20042;-85
2023/04/20 12:34:26;;;;;;;5.55;2.13;;;11.50;59.50;;;;;;4961795;28;20058;-84
2023/04/20 12:36:53;;;;;;;3.97;1.73;;;11.50;59.50;;;;;;4960505;28;20039;-81
2023/04/20 12:39:20;;;;;;;3.60;1.50;;;11.50;59.50;;;;;;4956743;28;20109;-86
2023/04/20 12:41:47;;;;;;;3.03;1.50;;;11.60;59.40;;;;;;4973875;28;20053;-84
2023/04/20 12:44:14;;;;;;;2.20;1.40;;;11.70;59.30;;;;;;4983083;28;20050;-86
2023/04/20 12:46:42;;;;;;;2.92;1.13;;;11.70;59.20;;;;;;4961185;28;20361;-80
2023/04/20 12:49:09;;;;;;;3.58;1.85;;;11.80;59.20;;;;;;4960184;28;20415;-89
2023/04/20 12:51:39;;;;;;;2.92;1.35;;;11.90;59.00;;;;;;4960212;28;20459;-87
2023/04/20 12:54:10;;;;;;;3.10;1.55;;;12.10;58.90;;;;;;4959016;28;20494;-90
2023/04/20 12:56:37;;;;;;;3.55;2.17;;;12.20;58.60;;;;;;4976513;28;20145;-91
2023/04/20 12:59:04;;;;;;;3.35;2.20;;;12.30;58.50;;;;;;4974027;28;20046;-92
2023/04/20 13:01:31;;;;;;;2.70;1.58;;;12.20;58.50;;;;;;4950105;28;20046;-91